Terminal Aerodrome Forecast
Issued by NWS

Home | Current Version | Previous Version | Text Only | Print | Product List | Glossary On
Versions: 1 2 3 4 5 6 7 8 9 10 11 12 13 14 15 16 17 18 19 20 21 22 23 24
000
FTUS43 KMQT 201700
TAFCMX
TAF
KCMX 201734Z 2018/2118 33007KT 3SM BR VCSH OVC004
     FM202000 32007KT 5SM BR OVC008
     FM202200 35004KT 6SM BR OVC010
     FM210100 03004KT 4SM BR SCT005 BKN015
     FM210500 09003KT 1/2SM FG OVC003
     FM211500 11006KT 6SM BR OVC008=

USA.gov is the U.S. government's official web portal to all federal, state and local government web resources and services.